Time;durP1;ratioP1;P1;durP2;ratioP2;P2;SDS_P1;SDS_P2;PMS_P1;PMS_P2;Temp;Humidity;BMP_temperature;BMP_pressure;BME280_temperature;BME280_humidity;BME280_pressure;Samples;Min_cycle;Max_cycle;Signal;HPM_P1;HPM_P2
2022/09/15 00:01:23;;;;;;;13.98;3.53;;;14.20;99.90;;;;;;5041839;28;20418;-56
2022/09/15 00:03:49;;;;;;;12.10;3.67;;;14.10;99.90;;;;;;5049397;28;20545;-56
2022/09/15 00:06:15;;;;;;;9.88;3.47;;;14.10;99.90;;;;;;5049723;28;20094;-55
2022/09/15 00:08:41;;;;;;;12.73;4.10;;;14.10;99.90;;;;;;5048601;28;20084;-56
2022/09/15 00:11:14;;;;;;;9.00;3.67;;;14.00;99.90;;;;;;5048878;28;20064;-56
2022/09/15 00:13:40;;;;;;;9.10;3.50;;;14.00;99.90;;;;;;5047046;28;20415;-56
2022/09/15 00:16:07;;;;;;;18.52;4.70;;;13.90;99.90;;;;;;5049128;28;20092;-56
2022/09/15 00:18:34;;;;;;;10.30;4.20;;;13.90;99.90;;;;;;5049160;28;20059;-56
2022/09/15 00:21:04;;;;;;;7.47;3.50;;;13.80;99.90;;;;;;5046526;28;20021;-56
2022/09/15 00:23:29;;;;;;;11.80;3.80;;;13.80;99.90;;;;;;5039799;28;20075;-56
2022/09/15 00:25:55;;;;;;;10.00;4.22;;;13.70;99.90;;;;;;5049050;28;20021;-56
2022/09/15 00:28:21;;;;;;;6.70;3.83;;;13.70;99.90;;;;;;5041271;28;20047;-56
2022/09/15 00:30:50;;;;;;;15.88;4.90;;;13.70;99.90;;;;;;5043771;28;20116;-56
2022/09/15 00:33:17;;;;;;;6.03;3.67;;;13.60;99.90;;;;;;5048435;28;20017;-56
2022/09/15 00:35:45;;;;;;;9.52;3.97;;;13.60;99.90;;;;;;5048966;28;20017;-56
2022/09/15 00:38:12;;;;;;;7.38;4.00;;;13.60;99.90;;;;;;5048702;28;20155;-56
2022/09/15 00:40:53;;;;;;;14.00;4.35;;;13.60;99.90;;;;;;5047633;28;20061;-56
2022/09/15 00:43:21;;;;;;;15.13;4.68;;;13.60;99.90;;;;;;5048138;28;20036;-56
2022/09/15 00:45:47;;;;;;;10.57;4.15;;;13.60;99.90;;;;;;5048897;28;20437;-56
2022/09/15 00:48:19;;;;;;;11.32;4.30;;;13.60;99.90;;;;;;5049125;28;20025;-57
2022/09/15 00:50:50;;;;;;;11.13;4.80;;;13.50;99.90;;;;;;5048795;28;20112;-56
2022/09/15 00:53:18;;;;;;;14.52;4.43;;;13.50;99.90;;;;;;5037989;28;20021;-56
2022/09/15 00:55:47;;;;;;;9.18;4.30;;;13.50;99.90;;;;;;5043342;28;20115;-56
2022/09/15 00:58:21;;;;;;;14.52;4.95;;;13.50;99.90;;;;;;5039962;28;20017;-56
2022/09/15 01:00:55;;;;;;;10.50;4.75;;;13.50;99.90;;;;;;5043798;28;20033;-56
2022/09/15 01:03:23;;;;;;;8.57;5.15;;;13.40;99.90;;;;;;5039583;28;20021;-56
2022/09/15 01:05:53;;;;;;;12.18;4.35;;;13.40;99.90;;;;;;5040956;28;20075;-55
2022/09/15 01:08:33;;;;;;;15.68;5.68;;;13.40;99.90;;;;;;5043840;28;20025;-55
2022/09/15 01:10:59;;;;;;;14.57;5.65;;;13.30;99.90;;;;;;5044700;28;20658;-55
2022/09/15 01:13:25;;;;;;;18.15;4.60;;;13.30;99.90;;;;;;5052740;28;20417;-56
2022/09/15 01:16:31;;;;;;;13.80;5.75;;;13.30;99.90;;;;;;5041843;28;20020;-56
2022/09/15 01:19:06;;;;;;;11.32;5.22;;;13.20;99.90;;;;;;5014392;28;20034;-56
2022/09/15 01:21:52;;;;;;;17.80;6.03;;;13.20;99.90;;;;;;5033964;28;20383;-56
2022/09/15 01:24:40;;;;;;;17.98;6.80;;;13.20;99.90;;;;;;5032469;28;20045;-56
2022/09/15 01:27:32;;;;;;;23.98;9.30;;;13.20;99.90;;;;;;5039326;28;20025;-56
2022/09/15 01:30:08;;;;;;;19.80;6.47;;;13.10;99.90;;;;;;5051356;28;20508;-56
2022/09/15 01:33:04;;;;;;;18.52;8.13;;;13.10;99.90;;;;;;5051019;28;20029;-56
2022/09/15 01:35:45;;;;;;;12.05;7.13;;;13.00;99.90;;;;;;5052882;28;20482;-56
2022/09/15 01:38:21;;;;;;;13.93;8.23;;;13.00;99.90;;;;;;5051520;28;20025;-56
2022/09/15 01:41:04;;;;;;;17.92;8.63;;;13.00;99.90;;;;;;5048507;28;20025;-56
2022/09/15 01:43:33;;;;;;;12.82;7.38;;;12.90;99.90;;;;;;5043677;28;20053;-56
2022/09/15 01:46:00;;;;;;;19.08;8.57;;;12.90;99.90;;;;;;5052583;28;20033;-56
2022/09/15 01:48:28;;;;;;;13.38;8.35;;;12.90;99.90;;;;;;5052567;28;20035;-56
2022/09/15 01:50:57;;;;;;;17.65;9.05;;;12.90;99.90;;;;;;5051138;28;20029;-56
2022/09/15 01:53:23;;;;;;;17.42;8.52;;;12.80;99.90;;;;;;5042337;28;20021;-56
2022/09/15 01:55:59;;;;;;;21.73;9.70;;;12.80;99.90;;;;;;5046234;28;20017;-56
2022/09/15 01:58:25;;;;;;;15.68;10.45;;;12.70;99.90;;;;;;5045209;28;20462;-56
2022/09/15 02:01:06;;;;;;;13.60;8.15;;;12.70;99.90;;;;;;5044071;28;20048;-56
2022/09/15 02:03:56;;;;;;;20.23;9.35;;;12.70;99.90;;;;;;5051864;28;20029;-56
2022/09/15 02:06:39;;;;;;;16.70;9.45;;;12.60;99.90;;;;;;5052278;28;20682;-56
2022/09/15 02:09:41;;;;;;;16.48;9.70;;;12.60;99.90;;;;;;5051876;28;20501;-56
2022/09/15 02:12:18;;;;;;;13.95;8.90;;;12.50;99.90;;;;;;5051920;28;20044;-56
2022/09/15 02:15:04;;;;;;;18.33;9.80;;;12.50;99.90;;;;;;5051846;28;20017;-55
2022/09/15 02:17:34;;;;;;;19.95;10.43;;;12.50;99.90;;;;;;5050746;28;20021;-55
2022/09/15 02:20:14;;;;;;;14.32;9.63;;;12.50;99.90;;;;;;5023707;28;20104;-55
2022/09/15 02:22:44;;;;;;;21.05;10.45;;;12.50;99.90;;;;;;5030990;28;20028;-55
2022/09/15 02:25:16;;;;;;;18.08;10.88;;;12.50;99.90;;;;;;5043454;28;20021;-55
2022/09/15 02:27:47;;;;;;;17.30;8.88;;;12.40;99.90;;;;;;5049707;28;20036;-56
2022/09/15 02:30:15;;;;;;;26.55;12.35;;;12.40;99.90;;;;;;5043153;28;20036;-56
2022/09/15 02:32:50;;;;;;;20.73;11.45;;;12.30;99.90;;;;;;5029403;28;20026;-55
2022/09/15 02:35:16;;;;;;;23.65;11.50;;;12.40;99.90;;;;;;5017746;28;20025;-54
2022/09/15 02:37:43;;;;;;;24.83;12.07;;;12.40;99.90;;;;;;5026681;28;20018;-54
2022/09/15 02:40:09;;;;;;;17.88;10.40;;;12.30;99.90;;;;;;5020094;28;20037;-54
2022/09/15 02:42:35;;;;;;;22.90;11.80;;;12.30;99.90;;;;;;5030627;28;20061;-56
2022/09/15 02:45:01;;;;;;;23.13;12.50;;;12.30;99.90;;;;;;5031341;28;20388;-56
2022/09/15 02:47:27;;;;;;;23.90;11.68;;;12.30;99.90;;;;;;5031167;28;20044;-56
2022/09/15 02:49:53;;;;;;;25.67;12.57;;;12.30;99.90;;;;;;5031373;28;20036;-56
2022/09/15 02:52:19;;;;;;;24.23;11.52;;;12.30;99.90;;;;;;5038109;28;20048;-56
2022/09/15 02:54:45;;;;;;;26.08;13.48;;;12.30;99.90;;;;;;5044118;28;20017;-56
2022/09/15 02:57:12;;;;;;;23.60;12.32;;;12.30;99.90;;;;;;5048679;28;20032;-56
2022/09/15 03:02:23;;;;;;;31.48;13.48;;;12.20;99.90;;;;;;5045992;28;20086;-56
2022/09/15 03:04:49;;;;;;;22.48;13.10;;;12.20;99.90;;;;;;5039108;28;20017;-56
2022/09/15 03:07:16;;;;;;;26.33;12.88;;;12.20;99.90;;;;;;5049138;28;20188;-56
2022/09/15 03:09:42;;;;;;;17.88;11.25;;;12.20;99.90;;;;;;5051113;28;20029;-56
2022/09/15 03:12:08;;;;;;;18.60;11.63;;;12.20;99.90;;;;;;5035794;28;20095;-57
2022/09/15 03:14:34;;;;;;;27.42;13.18;;;12.20;99.90;;;;;;5020148;28;20064;-56
2022/09/15 03:17:00;;;;;;;21.45;12.68;;;12.20;99.90;;;;;;5020389;28;20029;-56
2022/09/15 03:19:25;;;;;;;22.45;12.10;;;12.10;99.90;;;;;;5018057;28;20029;-55
2022/09/15 03:21:51;;;;;;;24.75;12.40;;;12.20;99.90;;;;;;5021222;28;20418;-55
2022/09/15 03:24:18;;;;;;;24.25;13.13;;;12.10;99.90;;;;;;5017705;28;20156;-55
2022/09/15 03:26:45;;;;;;;25.55;12.23;;;12.10;99.90;;;;;;5013245;28;20022;-55
2022/09/15 03:29:11;;;;;;;17.80;11.98;;;12.10;99.90;;;;;;5010897;28;20030;-55
2022/09/15 03:31:36;;;;;;;23.55;12.43;;;12.10;99.90;;;;;;5010480;28;20033;-55
2022/09/15 03:34:02;;;;;;;22.85;13.52;;;12.10;99.90;;;;;;5033697;28;20021;-56
2022/09/15 03:36:28;;;;;;;26.75;13.32;;;12.10;99.90;;;;;;5042696;28;20072;-55
2022/09/15 03:38:56;;;;;;;25.45;12.75;;;12.10;99.90;;;;;;5049835;28;20025;-55
2022/09/15 03:41:22;;;;;;;26.73;12.63;;;12.10;99.90;;;;;;5049918;28;20028;-56
2022/09/15 03:43:48;;;;;;;20.52;11.80;;;12.20;99.90;;;;;;5048513;28;20025;-55
2022/09/15 03:46:13;;;;;;;20.33;11.43;;;12.10;99.90;;;;;;5050446;28;20053;-56
2022/09/15 03:48:39;;;;;;;30.08;14.20;;;12.20;99.90;;;;;;5049240;28;20029;-56
2022/09/15 03:51:06;;;;;;;21.45;12.60;;;12.10;99.90;;;;;;5047800;28;20104;-56
2022/09/15 03:53:33;;;;;;;22.17;12.23;;;12.10;99.90;;;;;;5041539;28;20501;-55
2022/09/15 03:56:20;;;;;;;20.08;11.98;;;12.10;99.90;;;;;;5046696;28;20487;-56
2022/09/15 03:58:46;;;;;;;27.38;12.70;;;12.10;99.90;;;;;;5050228;28;20044;-56
2022/09/15 04:01:12;;;;;;;35.58;13.15;;;12.10;99.90;;;;;;5050293;28;20068;-56
2022/09/15 04:03:37;;;;;;;22.60;12.77;;;12.20;99.90;;;;;;5049644;28;20025;-56
2022/09/15 04:06:03;;;;;;;23.65;12.45;;;12.20;99.90;;;;;;5050071;28;20082;-56
2022/09/15 04:08:28;;;;;;;25.35;13.35;;;12.20;99.90;;;;;;5049683;28;20083;-56
2022/09/15 04:10:54;;;;;;;23.65;12.70;;;12.20;99.90;;;;;;5049821;28;20052;-56
2022/09/15 04:13:20;;;;;;;22.73;11.93;;;12.20;99.90;;;;;;5049468;28;20476;-56
2022/09/15 04:15:47;;;;;;;25.38;12.68;;;12.20;99.90;;;;;;5049898;28;20014;-56
2022/09/15 04:18:12;;;;;;;20.17;13.50;;;12.30;99.90;;;;;;5049791;28;20025;-56
2022/09/15 04:20:38;;;;;;;21.95;13.45;;;12.30;99.90;;;;;;5050194;28;20688;-56
2022/09/15 04:23:04;;;;;;;20.13;12.48;;;12.30;99.90;;;;;;5046460;28;20112;-55
2022/09/15 04:25:29;;;;;;;24.85;13.23;;;12.40;99.90;;;;;;5042157;28;20029;-56
2022/09/15 04:27:57;;;;;;;25.48;15.15;;;12.40;99.90;;;;;;5042175;28;20026;-55
2022/09/15 04:30:23;;;;;;;23.95;14.32;;;12.40;99.90;;;;;;5041120;28;20033;-55
2022/09/15 04:32:50;;;;;;;29.38;13.23;;;12.40;99.90;;;;;;5049535;28;20033;-55
2022/09/15 04:35:16;;;;;;;23.70;14.35;;;12.40;99.90;;;;;;5047801;28;20043;-55
2022/09/15 04:37:41;;;;;;;27.10;14.48;;;12.40;99.90;;;;;;5036097;28;20460;-56
2022/09/15 04:40:09;;;;;;;25.85;14.27;;;12.40;99.90;;;;;;5046304;28;20596;-55
2022/09/15 04:42:34;;;;;;;35.90;16.50;;;12.50;99.90;;;;;;5047898;28;20398;-54
2022/09/15 04:45:00;;;;;;;26.02;13.88;;;12.40;99.90;;;;;;5045482;28;20025;-54
2022/09/15 04:47:26;;;;;;;28.60;16.05;;;12.40;99.90;;;;;;5045755;28;20375;-54
2022/09/15 04:49:51;;;;;;;35.60;16.48;;;12.50;99.90;;;;;;5049473;28;20021;-54
2022/09/15 04:52:17;;;;;;;36.08;16.50;;;12.50;99.90;;;;;;5042604;28;20021;-54
2022/09/15 04:54:42;;;;;;;35.83;17.63;;;12.50;99.90;;;;;;5052649;28;20390;-54
2022/09/15 04:57:08;;;;;;;29.77;16.48;;;12.50;99.90;;;;;;5025199;28;20368;-57
2022/09/15 04:59:34;;;;;;;29.83;17.95;;;12.60;99.90;;;;;;5031889;28;20028;-56
2022/09/15 05:01:59;;;;;;;30.75;17.30;;;12.60;99.90;;;;;;5020682;28;20040;-56
2022/09/15 05:04:25;;;;;;;35.97;19.48;;;12.60;99.90;;;;;;5024894;28;20496;-56
2022/09/15 05:06:50;;;;;;;29.65;17.92;;;12.60;99.90;;;;;;5024526;28;20213;-56
2022/09/15 05:09:16;;;;;;;31.80;18.27;;;12.60;99.90;;;;;;5023040;28;20041;-55
2022/09/15 05:11:41;;;;;;;36.83;17.63;;;12.60;99.90;;;;;;5026114;28;20095;-55
2022/09/15 05:14:08;;;;;;;34.53;16.75;;;12.60;99.90;;;;;;5026218;28;20057;-56
2022/09/15 05:16:34;;;;;;;34.42;18.83;;;12.70;99.90;;;;;;5032358;28;20021;-56
2022/09/15 05:19:02;;;;;;;36.30;18.15;;;12.70;99.90;;;;;;5026989;28;20037;-56
2022/09/15 05:21:27;;;;;;;36.17;20.48;;;12.70;99.90;;;;;;5025178;28;20114;-55
2022/09/15 05:23:53;;;;;;;33.80;18.67;;;12.70;99.90;;;;;;5020813;28;20534;-55
2022/09/15 05:26:25;;;;;;;35.78;19.80;;;12.80;99.90;;;;;;5019119;28;20076;-55
2022/09/15 05:28:51;;;;;;;30.42;19.15;;;12.80;99.90;;;;;;5021595;28;20489;-55
2022/09/15 05:31:20;;;;;;;35.47;19.40;;;12.80;99.90;;;;;;5020136;28;20027;-55
2022/09/15 05:33:47;;;;;;;34.45;19.35;;;12.80;99.90;;;;;;5027439;28;20025;-55
2022/09/15 05:36:14;;;;;;;35.70;19.77;;;12.90;99.90;;;;;;5021993;28;20021;-55
2022/09/15 05:38:40;;;;;;;31.60;18.77;;;12.80;99.90;;;;;;5022487;28;20018;-55
2022/09/15 05:41:08;;;;;;;33.70;19.20;;;12.90;99.90;;;;;;5026089;28;20026;-55
2022/09/15 05:43:35;;;;;;;34.17;19.10;;;12.90;99.90;;;;;;5022913;28;20026;-55
2022/09/15 05:46:01;;;;;;;28.38;17.85;;;12.90;99.90;;;;;;5028601;28;20412;-55
2022/09/15 05:48:27;;;;;;;27.98;17.27;;;12.90;99.90;;;;;;5023436;28;20101;-55
2022/09/15 05:50:54;;;;;;;31.70;18.48;;;13.00;99.90;;;;;;5019547;28;20040;-55
2022/09/15 05:53:20;;;;;;;26.85;16.15;;;13.00;99.90;;;;;;5024670;28;20128;-55
2022/09/15 05:55:46;;;;;;;26.88;16.05;;;13.10;99.90;;;;;;5034795;28;20021;-55
2022/09/15 05:58:12;;;;;;;33.13;18.05;;;13.10;99.90;;;;;;5031929;28;20395;-55
2022/09/15 06:00:39;;;;;;;30.63;17.80;;;13.10;99.90;;;;;;5042341;28;20029;-55
2022/09/15 06:03:04;;;;;;;27.15;15.40;;;13.10;99.90;;;;;;5050694;28;20021;-55
2022/09/15 06:05:30;;;;;;;30.83;17.10;;;13.10;99.90;;;;;;5033468;28;20082;-56
2022/09/15 06:07:55;;;;;;;28.27;16.77;;;13.00;99.90;;;;;;5035101;28;20167;-55
2022/09/15 06:10:23;;;;;;;30.67;18.23;;;13.00;99.90;;;;;;5037319;28;20096;-55
2022/09/15 06:12:52;;;;;;;33.83;16.00;;;13.00;99.90;;;;;;5046401;28;20107;-55
2022/09/15 06:15:18;;;;;;;25.02;15.32;;;13.00;99.90;;;;;;5052155;28;20052;-55
2022/09/15 06:17:44;;;;;;;25.55;16.65;;;13.10;99.90;;;;;;5014544;28;20229;-55
2022/09/15 06:20:09;;;;;;;29.25;16.83;;;13.10;99.90;;;;;;5011270;28;20034;-55
2022/09/15 06:22:35;;;;;;;22.42;14.23;;;13.10;99.90;;;;;;5010842;28;20029;-55
2022/09/15 06:25:00;;;;;;;32.92;16.08;;;13.20;99.90;;;;;;5010543;28;20029;-55
2022/09/15 06:27:26;;;;;;;23.05;14.43;;;13.20;99.90;;;;;;5008334;28;20026;-55
2022/09/15 06:29:51;;;;;;;29.40;15.68;;;13.30;99.90;;;;;;5009424;28;20041;-55
2022/09/15 06:32:17;;;;;;;28.38;15.77;;;13.40;99.90;;;;;;5009666;28;20374;-55
2022/09/15 06:34:42;;;;;;;20.92;15.27;;;13.40;99.90;;;;;;5009703;28;20037;-55
2022/09/15 06:37:08;;;;;;;27.58;15.52;;;13.50;99.90;;;;;;5009857;28;20452;-55
2022/09/15 06:39:34;;;;;;;28.58;15.10;;;13.60;99.90;;;;;;5021975;28;20021;-55
2022/09/15 06:42:00;;;;;;;29.13;15.15;;;13.60;99.90;;;;;;5040623;28;20013;-55
2022/09/15 06:44:26;;;;;;;25.23;14.35;;;13.70;99.90;;;;;;5048510;28;20811;-55
2022/09/15 06:46:51;;;;;;;25.60;15.40;;;13.80;99.90;;;;;;5049009;28;20051;-55
2022/09/15 06:49:17;;;;;;;26.17;15.80;;;13.90;99.90;;;;;;5048358;28;20478;-55
2022/09/15 06:51:43;;;;;;;23.42;14.25;;;14.00;99.90;;;;;;5049094;28;20032;-55
2022/09/15 06:54:09;;;;;;;20.95;12.80;;;14.00;99.90;;;;;;5048680;28;20033;-55
2022/09/15 06:56:34;;;;;;;26.77;13.27;;;14.10;99.90;;;;;;5048350;28;20055;-55
2022/09/15 06:59:00;;;;;;;18.88;12.05;;;14.00;99.90;;;;;;5049082;28;20029;-55
2022/09/15 07:01:28;;;;;;;24.38;14.23;;;14.00;99.90;;;;;;5046866;28;20028;-55
2022/09/15 07:03:55;;;;;;;20.45;12.88;;;14.10;99.90;;;;;;5048345;28;20052;-55
2022/09/15 07:06:21;;;;;;;21.15;11.73;;;14.20;99.90;;;;;;5044031;28;20040;-55
2022/09/15 07:08:48;;;;;;;17.42;11.27;;;14.20;99.90;;;;;;5036452;28;20025;-55
2022/09/15 07:11:15;;;;;;;25.70;12.20;;;14.20;99.90;;;;;;5039474;28;20030;-55
2022/09/15 07:13:41;;;;;;;16.45;10.65;;;14.20;99.90;;;;;;5018873;28;20101;-55
2022/09/15 07:16:09;;;;;;;17.52;10.23;;;14.20;99.90;;;;;;5043750;28;20544;-55
2022/09/15 07:18:35;;;;;;;17.98;10.32;;;14.30;99.90;;;;;;5048283;28;20029;-55
2022/09/15 07:21:07;;;;;;;19.75;10.23;;;14.30;99.90;;;;;;5049905;28;20029;-55
2022/09/15 07:23:34;;;;;;;25.88;17.23;;;14.40;99.90;;;;;;5049580;28;20025;-55
2022/09/15 07:26:19;;;;;;;21.75;12.68;;;14.50;99.90;;;;;;5049953;28;20024;-55
2022/09/15 07:28:48;;;;;;;15.35;8.55;;;14.60;99.90;;;;;;5049497;28;20059;-55
2022/09/15 07:31:16;;;;;;;13.25;7.82;;;14.70;99.90;;;;;;5049923;28;20059;-55
2022/09/15 07:33:42;;;;;;;16.83;7.53;;;14.90;99.90;;;;;;5038951;28;20515;-55
2022/09/15 07:36:08;;;;;;;13.80;6.95;;;14.90;99.90;;;;;;5029559;28;20029;-55
2022/09/15 07:38:38;;;;;;;12.80;6.50;;;15.00;99.90;;;;;;5030862;28;20084;-55
2022/09/15 07:41:05;;;;;;;12.90;6.97;;;15.20;99.90;;;;;;5037830;28;20033;-55
2022/09/15 07:43:31;;;;;;;16.55;7.22;;;15.00;99.90;;;;;;5040607;28;20501;-55
2022/09/15 07:45:58;;;;;;;12.20;6.07;;;15.00;99.90;;;;;;5049000;28;20237;-55
2022/09/15 07:48:23;;;;;;;9.23;5.43;;;15.00;99.90;;;;;;5047888;28;20039;-55
2022/09/15 07:50:49;;;;;;;19.05;6.40;;;15.10;99.90;;;;;;5049057;28;20133;-55
2022/09/15 07:53:14;;;;;;;13.52;6.25;;;15.10;99.90;;;;;;5049892;28;20090;-55
2022/09/15 07:55:40;;;;;;;14.38;6.13;;;15.10;99.90;;;;;;5050219;28;20021;-55
2022/09/15 07:58:05;;;;;;;26.02;14.50;;;15.00;99.90;;;;;;5047761;28;20056;-55
2022/09/15 08:00:31;;;;;;;19.58;10.63;;;14.90;99.90;;;;;;5048971;28;20033;-55
2022/09/15 08:02:57;;;;;;;12.07;6.15;;;15.00;99.90;;;;;;5048551;28;20055;-55
2022/09/15 08:05:27;;;;;;;12.98;6.55;;;15.00;99.90;;;;;;5041219;28;20375;-55
2022/09/15 08:07:54;;;;;;;12.95;5.80;;;14.90;99.90;;;;;;5043508;28;20098;-53
2022/09/15 08:10:20;;;;;;;13.90;5.72;;;14.90;99.90;;;;;;5039744;28;20036;-54
2022/09/15 08:12:46;;;;;;;14.13;5.68;;;15.00;99.90;;;;;;5039569;28;20013;-51
2022/09/15 08:15:11;;;;;;;14.18;5.20;;;15.00;99.90;;;;;;5042344;28;20407;-49
2022/09/15 08:17:37;;;;;;;12.80;5.55;;;15.10;99.90;;;;;;5040600;28;20040;-52
2022/09/15 08:20:03;;;;;;;9.82;5.47;;;15.20;99.90;;;;;;5042862;28;20041;-51
2022/09/15 08:22:28;;;;;;;9.00;5.03;;;15.20;99.90;;;;;;5039906;28;20226;-49
2022/09/15 08:24:54;;;;;;;11.98;4.68;;;15.40;99.90;;;;;;5047073;28;20029;-52
2022/09/15 08:27:19;;;;;;;10.98;5.05;;;15.50;99.90;;;;;;5037702;28;20414;-50
2022/09/15 08:29:45;;;;;;;10.80;5.35;;;15.60;99.90;;;;;;5048419;28;20029;-49
2022/09/15 08:32:10;;;;;;;17.58;4.45;;;15.60;99.90;;;;;;5037528;28;20563;-58
2022/09/15 08:34:36;;;;;;;10.73;4.47;;;15.80;99.90;;;;;;5046823;28;20029;-53
2022/09/15 08:37:01;;;;;;;9.73;3.38;;;15.90;99.90;;;;;;5038724;28;20029;-52
2022/09/15 08:39:27;;;;;;;8.55;4.25;;;16.10;99.90;;;;;;5040318;28;20433;-56
2022/09/15 08:41:54;;;;;;;13.85;3.97;;;16.20;99.90;;;;;;5041183;28;20382;-57
2022/09/15 08:44:43;;;;;;;9.02;3.80;;;16.00;99.90;;;;;;5038690;28;20013;-57
2022/09/15 08:47:19;;;;;;;10.85;4.00;;;16.10;99.90;;;;;;5043376;28;20013;-56
2022/09/15 08:50:02;;;;;;;8.82;3.78;;;16.10;99.90;;;;;;5041964;28;20029;-56
2022/09/15 08:52:31;;;;;;;11.07;4.22;;;15.90;99.90;;;;;;5038913;28;20581;-57
2022/09/15 08:55:10;;;;;;;8.55;3.65;;;15.90;99.90;;;;;;5043443;28;20032;-57
2022/09/15 08:57:36;;;;;;;20.35;8.20;;;15.90;99.90;;;;;;5039197;28;20103;-57
2022/09/15 09:00:02;;;;;;;17.27;7.07;;;15.90;99.90;;;;;;5039607;28;20224;-56
2022/09/15 09:02:45;;;;;;;10.60;3.70;;;16.00;99.90;;;;;;5041811;28;20035;-58
2022/09/15 09:05:17;;;;;;;8.98;3.22;;;16.10;99.90;;;;;;5040097;28;20025;-56
2022/09/15 09:08:22;;;;;;;8.88;3.50;;;16.30;99.90;;;;;;5046756;28;20020;-56
2022/09/15 09:10:50;;;;;;;8.65;3.38;;;16.50;99.90;;;;;;5036922;28;20032;-56
2022/09/15 09:13:27;;;;;;;6.82;3.30;;;16.60;99.90;;;;;;5042490;28;20025;-56
2022/09/15 09:16:30;;;;;;;9.98;3.40;;;16.70;99.90;;;;;;5029732;28;20059;-56
2022/09/15 09:19:36;;;;;;;14.38;3.42;;;16.70;99.90;;;;;;5034829;28;20144;-57
2022/09/15 09:22:12;;;;;;;11.15;3.30;;;16.80;99.90;;;;;;5034863;28;20029;-56
2022/09/15 09:24:44;;;;;;;7.57;2.53;;;16.90;99.90;;;;;;5042526;28;20025;-57
2022/09/15 09:27:13;;;;;;;6.57;2.45;;;16.90;99.90;;;;;;5034800;28;20159;-57
2022/09/15 09:29:43;;;;;;;14.60;3.13;;;17.00;99.90;;;;;;5047870;28;20029;-57
2022/09/15 09:32:47;;;;;;;10.35;3.20;;;17.10;99.90;;;;;;5049015;28;20104;-57
2022/09/15 09:35:43;;;;;;;6.90;2.58;;;17.00;99.90;;;;;;5029683;28;20033;-57
2022/09/15 09:38:19;;;;;;;8.80;2.15;;;17.50;99.90;;;;;;5029700;28;20592;-57
2022/09/15 09:40:45;;;;;;;9.70;2.85;;;18.20;99.90;;;;;;5031228;28;20033;-57
2022/09/15 09:43:11;;;;;;;6.60;2.33;;;19.10;99.90;;;;;;5031425;28;20022;-57
2022/09/15 09:45:36;;;;;;;6.55;2.22;;;19.60;99.90;;;;;;5042342;28;20547;-57
2022/09/15 09:48:14;;;;;;;6.85;1.83;;;20.10;99.90;;;;;;5051070;28;20036;-57
2022/09/15 09:50:43;;;;;;;9.82;2.58;;;20.60;99.90;;;;;;5040461;28;20020;-56
2022/09/15 09:53:37;;;;;;;8.15;2.28;;;21.20;99.30;;;;;;5047999;28;20018;-57
2022/09/15 09:56:23;;;;;;;7.95;1.70;;;21.80;97.40;;;;;;5028220;28;20057;-56
2022/09/15 09:58:49;;;;;;;7.57;2.10;;;22.30;95.00;;;;;;5044073;28;20021;-56
2022/09/15 10:01:19;;;;;;;9.10;2.25;;;23.20;93.90;;;;;;5044860;28;20032;-57
2022/09/15 10:03:45;;;;;;;7.53;2.05;;;22.80;93.40;;;;;;5044192;28;20406;-57
2022/09/15 10:06:14;;;;;;;3.92;1.65;;;23.00;93.10;;;;;;5049562;28;20100;-57
2022/09/15 10:09:03;;;;;;;6.47;1.85;;;22.80;93.30;;;;;;5048437;28;20033;-57
2022/09/15 10:11:53;;;;;;;6.90;1.60;;;22.60;92.60;;;;;;5034945;28;20025;-57
2022/09/15 10:14:25;;;;;;;8.68;1.65;;;22.10;93.10;;;;;;5046395;28;20025;-57
2022/09/15 10:17:04;;;;;;;8.40;1.50;;;22.80;91.00;;;;;;5032990;28;20041;-57
2022/09/15 10:19:53;;;;;;;3.25;1.17;;;24.40;90.00;;;;;;5030289;28;20491;-57
2022/09/15 10:22:35;;;;;;;6.35;2.03;;;25.80;82.90;;;;;;5032192;28;20057;-57
2022/09/15 10:25:21;;;;;;;4.18;1.75;;;24.50;80.70;;;;;;5041512;28;20068;-57
2022/09/15 10:28:07;;;;;;;2.97;1.17;;;24.70;82.10;;;;;;5043772;28;20111;-57
2022/09/15 10:30:33;;;;;;;3.22;1.40;;;26.30;80.10;;;;;;5030014;28;20021;-57
2022/09/15 10:33:18;;;;;;;5.82;1.55;;;26.20;75.50;;;;;;5029763;28;20387;-57
2022/09/15 10:35:44;;;;;;;4.55;1.40;;;25.00;76.90;;;;;;5035245;28;20154;-57
2022/09/15 10:38:18;;;;;;;8.10;1.63;;;23.90;78.10;;;;;;5041903;28;20103;-56
2022/09/15 10:40:53;;;;;;;6.50;1.58;;;22.60;81.60;;;;;;5043772;28;20017;-57
2022/09/15 10:43:48;;;;;;;7.97;2.10;;;21.60;85.90;;;;;;5040434;28;20368;-57
2022/09/15 10:46:53;;;;;;;6.15;1.63;;;21.30;88.50;;;;;;5044605;28;20372;-57
2022/09/15 10:49:55;;;;;;;2.72;1.10;;;21.90;88.10;;;;;;5041392;28;20545;-57
2022/09/15 10:52:42;;;;;;;7.28;1.75;;;21.70;87.40;;;;;;5043686;28;20039;-57
2022/09/15 10:55:29;;;;;;;4.82;1.45;;;21.20;88.30;;;;;;5047357;28;20056;-57
2022/09/15 10:58:33;;;;;;;4.05;1.23;;;20.80;90.40;;;;;;5046600;28;20104;-57
2022/09/15 11:01:26;;;;;;;6.07;1.30;;;20.80;89.80;;;;;;5040660;28;20044;-58
2022/09/15 11:04:19;;;;;;;5.18;1.63;;;21.50;88.80;;;;;;5040756;28;20444;-57
2022/09/15 11:07:11;;;;;;;5.97;1.40;;;21.50;86.90;;;;;;5038352;28;20382;-56
2022/09/15 11:09:56;;;;;;;3.22;1.35;;;21.20;89.60;;;;;;5038816;28;20061;-55
2022/09/15 11:12:40;;;;;;;19.83;11.18;;;21.00;90.20;;;;;;5049201;28;20510;-55
2022/09/15 11:15:20;;;;;;;10.10;2.08;;;20.80;90.80;;;;;;5038955;28;20400;-55
2022/09/15 11:17:49;;;;;;;;;;;20.90;90.40;;;;;;5032978;28;20439;-55
2022/09/15 11:20:24;;;;;;;3.80;1.25;;;20.70;89.50;;;;;;5028988;28;20351;-55
2022/09/15 11:23:16;;;;;;;4.55;1.45;;;20.50;89.00;;;;;;5040430;28;20017;-55
2022/09/15 11:25:48;;;;;;;1.65;0.98;;;20.60;90.30;;;;;;5048741;28;20132;-55
2022/09/15 11:28:21;;;;;;;4.40;1.08;;;21.40;88.00;;;;;;5049067;28;20233;-55
2022/09/15 11:31:13;;;;;;;7.30;1.15;;;21.70;87.20;;;;;;5038219;28;20022;-55
2022/09/15 11:33:51;;;;;;;4.60;1.30;;;21.30;88.90;;;;;;5007499;28;20520;-56
2022/09/15 11:36:22;;;;;;;5.55;1.10;;;20.70;88.70;;;;;;5031669;28;20428;-55
2022/09/15 11:38:56;;;;;;;5.43;1.65;;;20.20;89.80;;;;;;5043439;28;20025;-55
2022/09/15 11:41:40;;;;;;;2.15;1.10;;;19.60;90.80;;;;;;5049353;28;20114;-55
2022/09/15 11:44:08;;;;;;;5.60;1.40;;;19.00;91.70;;;;;;5039504;28;20021;-54
2022/09/15 11:46:57;;;;;;;3.58;1.13;;;18.50;92.50;;;;;;5041276;28;20028;-54
2022/09/15 11:49:35;;;;;;;6.10;1.50;;;18.20;94.00;;;;;;5044017;28;20155;-53
2022/09/15 11:52:10;;;;;;;8.07;2.05;;;17.90;94.90;;;;;;5038068;28;20048;-50
2022/09/15 11:55:01;;;;;;;3.95;1.00;;;17.90;95.60;;;;;;5048694;28;20037;-52
2022/09/15 11:57:37;;;;;;;7.05;1.30;;;18.10;95.70;;;;;;5027326;28;20041;-54
2022/09/15 12:00:14;;;;;;;2.80;1.17;;;18.30;96.60;;;;;;5028030;28;20519;-53
2022/09/15 12:02:42;;;;;;;9.98;1.50;;;18.60;94.70;;;;;;5039575;28;20032;-54
2022/09/15 12:05:28;;;;;;;5.53;1.10;;;19.60;93.50;;;;;;5045139;28;20033;-54
2022/09/15 12:08:03;;;;;;;4.63;1.20;;;20.20;91.40;;;;;;5038458;28;20021;-47
2022/09/15 12:10:34;;;;;;;4.32;1.13;;;21.00;90.70;;;;;;5043924;28;20406;-51
2022/09/15 12:13:00;;;;;;;6.25;1.48;;;21.40;89.00;;;;;;5036163;28;20022;-51
2022/09/15 12:15:26;;;;;;;4.72;1.25;;;21.50;86.70;;;;;;5048383;28;20025;-52
2022/09/15 12:18:10;;;;;;;6.80;1.35;;;21.40;86.00;;;;;;5041867;28;20489;-49
2022/09/15 12:20:43;;;;;;;4.75;1.30;;;21.10;87.60;;;;;;5027775;28;20026;-50
2022/09/15 12:23:10;;;;;;;4.80;1.52;;;20.60;88.00;;;;;;5026292;28;20036;-52
2022/09/15 12:26:20;;;;;;;3.72;1.45;;;20.00;90.90;;;;;;5037855;28;20040;-51
2022/09/15 12:28:45;;;;;;;6.47;1.77;;;19.50;92.50;;;;;;5026641;28;20044;-49
2022/09/15 12:31:31;;;;;;;5.75;1.25;;;18.90;94.30;;;;;;5038154;28;20022;-48
2022/09/15 12:33:59;;;;;;;3.72;1.45;;;18.70;94.80;;;;;;5046077;28;20063;-50
2022/09/15 12:36:41;;;;;;;3.65;1.80;;;18.60;96.10;;;;;;5037262;28;20096;-50
2022/09/15 12:39:35;;;;;;;4.35;1.40;;;18.50;95.60;;;;;;5036628;28;20028;-50
2022/09/15 12:42:09;;;;;;;5.28;1.75;;;18.50;95.60;;;;;;5024599;28;20025;-49
2022/09/15 12:44:46;;;;;;;4.70;1.33;;;18.60;94.70;;;;;;5016159;28;20483;-50
2022/09/15 12:47:39;;;;;;;2.33;1.10;;;18.70;95.30;;;;;;5036470;28;20017;-50
2022/09/15 12:50:23;;;;;;;4.03;1.17;;;18.60;94.90;;;;;;5021122;28;20060;-50
2022/09/15 12:53:00;;;;;;;5.55;1.50;;;18.80;95.20;;;;;;5024854;28;20056;-51
2022/09/15 12:55:36;;;;;;;3.13;1.23;;;18.80;94.70;;;;;;5034556;28;20022;-50
2022/09/15 12:58:18;;;;;;;3.08;1.17;;;19.10;95.20;;;;;;5045060;28;20505;-50
2022/09/15 13:00:44;;;;;;;4.20;1.20;;;19.50;94.70;;;;;;5036639;28;20570;-49
2022/09/15 13:03:27;;;;;;;7.60;2.00;;;19.90;94.70;;;;;;5035618;28;20030;-51